Time;durP1;ratioP1;P1;durP2;ratioP2;P2;SDS_P1;SDS_P2;PMS_P1;PMS_P2;Temp;Humidity;BMP_temperature;BMP_pressure;BME280_temperature;BME280_humidity;BME280_pressure;Samples;Min_cycle;Max_cycle;Signal;HPM_P1;HPM_P2
2023/04/11 00:00:39;;;;;;;9.65;7.60;;;9.80;99.90;;;;;;4985133;28;20053;-71
2023/04/11 00:03:07;;;;;;;9.93;7.68;;;9.90;99.90;;;;;;4971032;28;20690;-71
2023/04/11 00:05:35;;;;;;;9.18;7.47;;;9.90;99.90;;;;;;4975547;28;20046;-73
2023/04/11 00:08:02;;;;;;;8.75;7.18;;;9.80;99.90;;;;;;4999107;28;20533;-74
2023/04/11 00:10:31;;;;;;;9.95;8.10;;;9.80;99.90;;;;;;4975122;28;20042;-71
2023/04/11 00:12:59;;;;;;;11.15;7.68;;;9.90;99.90;;;;;;4981994;28;20058;-71
2023/04/11 00:15:27;;;;;;;11.80;8.00;;;9.80;99.90;;;;;;4989343;28;20039;-75
2023/04/11 00:17:56;;;;;;;11.63;8.65;;;9.90;99.90;;;;;;5003527;28;20057;-73
2023/04/11 00:20:23;;;;;;;10.25;8.60;;;9.90;99.90;;;;;;4979597;28;20039;-73
2023/04/11 00:22:52;;;;;;;9.95;7.80;;;9.90;99.90;;;;;;4988913;28;20054;-72
2023/04/11 00:25:20;;;;;;;9.82;8.07;;;9.90;99.90;;;;;;5000922;28;20112;-70
2023/04/11 00:27:47;;;;;;;13.20;8.45;;;9.90;99.90;;;;;;4997002;28;20422;-75
2023/04/11 00:30:15;;;;;;;9.43;7.85;;;9.90;99.90;;;;;;4989298;28;20521;-71
2023/04/11 00:32:45;;;;;;;10.95;8.25;;;9.90;99.90;;;;;;4982232;28;20042;-71
2023/04/11 00:35:14;;;;;;;12.07;8.10;;;9.90;99.90;;;;;;5012126;28;20034;-72
2023/04/11 00:37:43;;;;;;;10.82;8.05;;;9.90;99.90;;;;;;4993997;28;20053;-72
2023/04/11 00:40:16;;;;;;;11.70;7.75;;;9.90;99.90;;;;;;5001356;28;20431;-72
2023/04/11 00:42:44;;;;;;;13.82;7.80;;;9.90;99.90;;;;;;5007133;28;20082;-76
2023/04/11 00:45:14;;;;;;;11.68;8.48;;;9.90;99.90;;;;;;4994289;28;20486;-73
2023/04/11 00:47:41;;;;;;;12.02;8.05;;;9.90;99.90;;;;;;4997107;28;20043;-73
2023/04/11 00:50:12;;;;;;;12.38;8.43;;;9.90;99.90;;;;;;4994845;28;20095;-71
2023/04/11 00:52:41;;;;;;;10.13;8.15;;;9.90;99.90;;;;;;4999359;28;20037;-73
2023/04/11 00:55:09;;;;;;;11.85;8.23;;;9.90;99.90;;;;;;4980362;28;20050;-72
2023/04/11 00:57:38;;;;;;;13.07;9.30;;;9.90;99.90;;;;;;5002466;28;20042;-72
2023/04/11 01:00:08;;;;;;;12.32;8.18;;;10.00;99.90;;;;;;5002625;28;20412;-71
2023/04/11 01:02:37;;;;;;;11.98;8.90;;;9.90;99.90;;;;;;4997908;28;20030;-74
2023/04/11 01:05:05;;;;;;;15.43;10.68;;;9.90;99.90;;;;;;4981005;28;20461;-72
2023/04/11 01:07:33;;;;;;;11.18;8.23;;;10.00;99.90;;;;;;4979795;28;20046;-75
2023/04/11 01:10:02;;;;;;;13.18;9.60;;;9.90;99.90;;;;;;4981929;28;20145;-71
2023/04/11 01:12:33;;;;;;;15.23;8.68;;;10.00;99.90;;;;;;4984803;28;20062;-70
2023/04/11 01:15:02;;;;;;;15.27;8.93;;;10.00;99.90;;;;;;5002162;28;20046;-74
2023/04/11 01:17:29;;;;;;;14.98;9.32;;;9.90;99.90;;;;;;5003512;28;20050;-71
2023/04/11 01:19:56;;;;;;;12.68;9.07;;;9.90;99.90;;;;;;5009690;28;20128;-74
2023/04/11 01:22:25;;;;;;;13.45;9.45;;;10.00;99.90;;;;;;5011241;28;20120;-70
2023/04/11 01:24:52;;;;;;;17.95;9.60;;;10.00;99.90;;;;;;5001392;28;20430;-72
2023/04/11 01:27:19;;;;;;;13.60;8.23;;;9.90;99.90;;;;;;5001016;28;20046;-73
2023/04/11 01:29:47;;;;;;;9.02;7.40;;;10.00;99.90;;;;;;4995143;28;20042;-74
2023/04/11 01:32:14;;;;;;;10.70;7.53;;;9.90;99.90;;;;;;4977705;28;20394;-71
2023/04/11 01:34:43;;;;;;;15.45;8.98;;;9.90;99.90;;;;;;4979520;28;20044;-71
2023/04/11 01:37:10;;;;;;;15.32;9.73;;;9.90;99.90;;;;;;5004141;28;20050;-74
2023/04/11 01:39:39;;;;;;;13.38;9.63;;;9.90;99.90;;;;;;4990249;28;20390;-72
2023/04/11 01:42:08;;;;;;;13.27;9.93;;;10.00;99.90;;;;;;4998315;28;20042;-73
2023/04/11 01:44:40;;;;;;;14.50;9.82;;;10.00;99.90;;;;;;4993395;28;20493;-71
2023/04/11 01:47:07;;;;;;;17.42;9.88;;;10.00;99.90;;;;;;4993500;28;20042;-72
2023/04/11 01:49:35;;;;;;;13.38;9.60;;;10.00;99.90;;;;;;5009674;28;20038;-73
2023/04/11 01:52:03;;;;;;;14.63;9.50;;;10.00;99.90;;;;;;4976040;28;20096;-73
2023/04/11 01:54:30;;;;;;;15.73;10.10;;;10.00;99.90;;;;;;4973619;28;20434;-71
2023/04/11 01:56:57;;;;;;;15.70;10.07;;;10.00;99.90;;;;;;4971590;28;20049;-72
2023/04/11 01:59:25;;;;;;;14.85;10.38;;;10.10;99.90;;;;;;5025752;23;20049;-71
2023/04/11 02:01:52;;;;;;;13.80;9.70;;;10.10;99.90;;;;;;4996134;28;20084;-73
2023/04/11 02:04:23;;;;;;;12.55;9.10;;;10.10;99.90;;;;;;4993423;28;20038;-75
2023/04/11 02:06:50;;;;;;;14.23;11.27;;;10.10;99.90;;;;;;4992110;28;20051;-73
2023/04/11 02:09:18;;;;;;;19.00;11.38;;;10.10;99.90;;;;;;4978736;28;20042;-73
2023/04/11 02:11:46;;;;;;;12.77;9.88;;;10.10;99.90;;;;;;4993533;28;20451;-72
2023/04/11 02:14:13;;;;;;;16.50;10.95;;;10.20;99.90;;;;;;4995859;28;20034;-72
2023/04/11 02:16:51;;;;;;;14.68;11.50;;;10.10;99.90;;;;;;4993561;28;20049;-72
2023/04/11 02:19:19;;;;;;;14.32;9.63;;;10.20;99.90;;;;;;4988295;28;20038;-73
2023/04/11 02:21:47;;;;;;;15.68;11.48;;;10.10;99.90;;;;;;5009704;28;20045;-72
2023/04/11 02:24:15;;;;;;;13.93;10.23;;;10.10;99.90;;;;;;5014617;28;20053;-72
2023/04/11 02:26:43;;;;;;;16.27;10.77;;;10.10;99.90;;;;;;5014194;28;20034;-72
2023/04/11 02:29:10;;;;;;;16.33;11.60;;;10.10;99.90;;;;;;5001064;28;20062;-73
2023/04/11 02:31:38;;;;;;;16.33;11.30;;;10.10;99.90;;;;;;5001733;28;20105;-72
2023/04/11 02:34:09;;;;;;;16.23;11.43;;;10.10;99.90;;;;;;5013822;28;20042;-73
2023/04/11 02:36:36;;;;;;;16.90;11.02;;;10.20;99.90;;;;;;5013555;28;20056;-74
2023/04/11 02:39:04;;;;;;;17.38;11.30;;;10.10;99.90;;;;;;5012800;28;20045;-75
2023/04/11 02:41:31;;;;;;;18.30;11.90;;;10.10;99.90;;;;;;5002901;28;20058;-74
2023/04/11 02:43:58;;;;;;;18.02;11.93;;;10.10;99.90;;;;;;5008940;28;20046;-74
2023/04/11 02:46:25;;;;;;;17.58;11.48;;;10.10;99.90;;;;;;4996709;28;20038;-71
2023/04/11 02:48:53;;;;;;;15.10;10.10;;;10.10;99.90;;;;;;5000862;28;20040;-73
2023/04/11 02:51:20;;;;;;;15.38;11.52;;;10.10;99.90;;;;;;5005694;28;20372;-71
2023/04/11 02:53:48;;;;;;;17.00;11.65;;;10.10;99.90;;;;;;4996276;28;20048;-69
2023/04/11 02:56:17;;;;;;;16.27;11.25;;;10.10;99.90;;;;;;4995681;28;20594;-70
2023/04/11 02:58:45;;;;;;;16.47;11.23;;;10.10;99.90;;;;;;4996772;28;20050;-72
2023/04/11 03:01:15;;;;;;;16.48;11.75;;;10.10;99.90;;;;;;4996238;28;20390;-72
2023/04/11 03:03:43;;;;;;;17.80;11.82;;;10.00;99.90;;;;;;5000191;28;20058;-72
2023/04/11 03:06:10;;;;;;;17.88;11.93;;;10.00;99.90;;;;;;4985915;28;20460;-72
2023/04/11 03:08:39;;;;;;;15.18;12.10;;;10.00;99.90;;;;;;4999640;28;20057;-72
2023/04/11 03:11:06;;;;;;;15.98;10.50;;;9.90;99.90;;;;;;4998750;28;20449;-71
2023/04/11 03:13:35;;;;;;;17.15;11.40;;;9.90;99.90;;;;;;5002685;28;20095;-73
2023/04/11 03:16:03;;;;;;;15.57;11.50;;;9.90;99.90;;;;;;4998853;28;20046;-73
2023/04/11 03:18:30;;;;;;;16.27;11.73;;;9.90;99.90;;;;;;5004729;28;20469;-72
2023/04/11 03:20:57;;;;;;;14.90;9.82;;;9.90;99.90;;;;;;5011851;28;20137;-74
2023/04/11 03:23:25;;;;;;;16.20;11.25;;;9.90;99.90;;;;;;4996010;28;20058;-74
2023/04/11 03:25:53;;;;;;;18.08;11.60;;;9.80;99.90;;;;;;5003523;28;20038;-75
2023/04/11 03:28:20;;;;;;;15.50;10.73;;;9.70;99.90;;;;;;4999898;28;20034;-73
2023/04/11 03:30:49;;;;;;;16.92;12.05;;;9.80;99.90;;;;;;4995282;28;20046;-71
2023/04/11 03:33:16;;;;;;;17.90;11.88;;;9.80;99.90;;;;;;5008572;28;20042;-73
2023/04/11 03:35:43;;;;;;;13.68;11.23;;;9.80;99.90;;;;;;4996144;28;20042;-71
2023/04/11 03:38:11;;;;;;;16.30;10.77;;;9.80;99.90;;;;;;5011476;28;20037;-72
2023/04/11 03:40:38;;;;;;;17.88;12.80;;;9.80;99.90;;;;;;5010211;28;20050;-72
2023/04/11 03:43:06;;;;;;;22.83;11.52;;;9.70;99.90;;;;;;5000809;28;20544;-74
2023/04/11 03:45:33;;;;;;;17.20;12.15;;;9.70;99.90;;;;;;5010358;28;20428;-72
2023/04/11 03:48:00;;;;;;;18.42;12.23;;;9.70;99.90;;;;;;5011688;28;20046;-74
2023/04/11 03:50:28;;;;;;;16.85;12.15;;;9.70;99.90;;;;;;5011295;28;20076;-72
2023/04/11 03:52:55;;;;;;;17.67;12.18;;;9.60;99.90;;;;;;5012340;28;20042;-71
2023/04/11 03:55:22;;;;;;;17.95;12.57;;;9.60;99.90;;;;;;5011042;28;20050;-72
2023/04/11 03:57:49;;;;;;;16.48;12.20;;;9.60;99.90;;;;;;5014407;28;20053;-71
2023/04/11 04:00:19;;;;;;;19.15;12.25;;;9.50;99.90;;;;;;5018452;28;20060;-72
2023/04/11 04:02:46;;;;;;;17.50;12.50;;;9.40;99.90;;;;;;5033652;28;20084;-72
2023/04/11 04:05:14;;;;;;;19.35;12.68;;;9.40;99.90;;;;;;5017831;28;20042;-73
2023/04/11 04:07:41;;;;;;;17.42;12.02;;;9.60;99.90;;;;;;5013095;28;20052;-72
2023/04/11 04:10:09;;;;;;;17.08;12.90;;;9.50;99.90;;;;;;5025808;28;20393;-74
2023/04/11 04:12:36;;;;;;;19.95;11.32;;;9.70;99.90;;;;;;5013477;28;20045;-74
2023/04/11 04:15:03;;;;;;;15.02;11.80;;;9.70;99.90;;;;;;5013701;28;20042;-74
2023/04/11 04:17:31;;;;;;;16.85;11.57;;;9.80;99.90;;;;;;5012947;28;20042;-74
2023/04/11 04:19:58;;;;;;;18.65;11.98;;;9.80;99.90;;;;;;5013997;28;20041;-73
2023/04/11 04:22:25;;;;;;;17.25;12.80;;;9.80;99.90;;;;;;5023506;28;20042;-70
2023/04/11 04:24:56;;;;;;;16.77;11.15;;;9.80;99.90;;;;;;5016047;28;20093;-72
2023/04/11 04:27:26;;;;;;;22.35;10.88;;;9.80;99.90;;;;;;4997452;28;20100;-73
2023/04/11 04:29:55;;;;;;;15.95;11.18;;;9.80;99.90;;;;;;5015521;28;20053;-73
2023/04/11 04:32:30;;;;;;;19.92;11.73;;;9.80;99.90;;;;;;5028724;28;20161;-76
2023/04/11 04:35:03;;;;;;;17.25;11.27;;;9.80;99.90;;;;;;5026079;28;20129;-75
2023/04/11 04:37:38;;;;;;;17.25;11.38;;;9.90;99.90;;;;;;5006205;28;20099;-74
2023/04/11 04:40:10;;;;;;;17.02;11.38;;;9.80;99.90;;;;;;5012059;28;20049;-74
2023/04/11 04:42:40;;;;;;;18.58;11.38;;;9.90;99.90;;;;;;5016770;28;20045;-73
2023/04/11 04:45:08;;;;;;;21.63;11.95;;;9.90;99.90;;;;;;5017437;28;20049;-74
2023/04/11 04:47:37;;;;;;;19.15;11.10;;;10.00;99.90;;;;;;5015555;28;20045;-74
2023/04/11 04:50:05;;;;;;;19.02;11.30;;;9.90;99.90;;;;;;5016001;28;20048;-71
2023/04/11 04:52:32;;;;;;;19.23;11.55;;;9.90;99.90;;;;;;5014080;28;20038;-72
2023/04/11 04:55:00;;;;;;;16.40;11.10;;;9.90;99.90;;;;;;5020226;28;20056;-70
2023/04/11 04:57:34;;;;;;;42.53;28.10;;;10.00;99.90;;;;;;5022519;28;20026;-77
2023/04/11 05:00:06;;;;;;;53.85;32.00;;;10.20;99.90;;;;;;5001576;28;20077;-75
2023/04/11 05:02:48;;;;;;;136.90;81.63;;;10.40;99.90;;;;;;4975707;28;20057;-72
2023/04/11 05:05:16;;;;;;;44.05;28.38;;;10.50;99.90;;;;;;4991961;28;20049;-73
2023/04/11 05:07:47;;;;;;;78.85;48.55;;;10.50;99.90;;;;;;5006913;28;20038;-72
2023/04/11 05:10:14;;;;;;;;;;;10.60;99.90;;;;;;5001180;28;20123;-72
2023/04/11 05:12:42;;;;;;;39.47;26.67;;;10.60;99.90;;;;;;4990567;28;19925;-72
2023/04/11 05:15:10;;;;;;;21.88;16.27;;;10.60;99.90;;;;;;5004657;28;20046;-74
2023/04/11 05:17:37;;;;;;;21.95;14.18;;;10.50;99.90;;;;;;5004206;28;20044;-72
2023/04/11 05:20:07;;;;;;;17.88;12.23;;;10.60;99.90;;;;;;5005652;28;20085;-74
2023/04/11 05:22:36;;;;;;;17.83;11.70;;;10.60;99.90;;;;;;4985204;28;20044;-73
2023/04/11 05:25:07;;;;;;;25.38;12.48;;;10.60;99.90;;;;;;4991686;28;20070;-73
2023/04/11 05:27:34;;;;;;;23.30;12.43;;;10.60;99.90;;;;;;5004967;28;20041;-75
2023/04/11 05:30:01;;;;;;;19.50;12.15;;;10.50;99.90;;;;;;5000279;28;20101;-72
2023/04/11 05:32:29;;;;;;;20.25;12.82;;;10.50;99.90;;;;;;5010191;28;20046;-72
2023/04/11 05:34:56;;;;;;;17.83;11.82;;;10.50;99.90;;;;;;5001248;28;20088;-74
2023/04/11 05:37:25;;;;;;;18.25;11.65;;;10.40;99.90;;;;;;4992026;28;20133;-71
2023/04/11 05:39:53;;;;;;;16.40;11.45;;;10.30;99.90;;;;;;5003147;28;20806;-73
2023/04/11 05:42:21;;;;;;;14.32;11.10;;;10.40;99.90;;;;;;5002477;28;20141;-72
2023/04/11 05:44:49;;;;;;;17.25;12.77;;;10.40;99.90;;;;;;4998585;28;20042;-74
2023/04/11 05:47:16;;;;;;;16.58;11.52;;;10.50;99.90;;;;;;4995767;28;20043;-73
2023/04/11 05:49:44;;;;;;;30.98;20.10;;;10.50;99.90;;;;;;4996345;28;20030;-74
2023/04/11 05:52:11;;;;;;;35.10;23.20;;;10.60;99.90;;;;;;4983191;28;20516;-74
2023/04/11 05:54:39;;;;;;;20.10;12.65;;;10.90;99.90;;;;;;5001920;28;20046;-77
2023/04/11 05:57:06;;;;;;;18.67;12.25;;;10.90;99.90;;;;;;5002227;28;20034;-74
2023/04/11 05:59:34;;;;;;;16.23;11.10;;;10.80;99.90;;;;;;4993956;28;20054;-74
2023/04/11 06:02:02;;;;;;;17.73;10.85;;;11.10;99.90;;;;;;4995532;28;20057;-72
2023/04/11 06:04:30;;;;;;;16.83;11.27;;;11.10;99.90;;;;;;5000825;28;20109;-73
2023/04/11 06:06:58;;;;;;;15.27;10.43;;;11.20;99.90;;;;;;5009818;28;20042;-72
2023/04/11 06:09:25;;;;;;;19.73;12.10;;;11.20;99.90;;;;;;4998273;28;20038;-72
2023/04/11 06:11:53;;;;;;;15.52;10.52;;;10.90;99.90;;;;;;4997640;28;20101;-72
2023/04/11 06:14:21;;;;;;;14.18;9.88;;;10.90;99.90;;;;;;5000617;28;20030;-72
2023/04/11 06:16:48;;;;;;;18.27;11.38;;;10.80;99.90;;;;;;4992502;28;20115;-72
2023/04/11 06:19:16;;;;;;;17.10;10.75;;;10.70;99.90;;;;;;4984775;28;20093;-71
2023/04/11 06:21:43;;;;;;;17.42;11.10;;;10.70;99.90;;;;;;4999836;28;20392;-73
2023/04/11 06:24:17;;;;;;;16.88;11.32;;;10.90;99.90;;;;;;4993502;28;20035;-72
2023/04/11 06:26:44;;;;;;;18.08;11.02;;;11.10;99.90;;;;;;5009888;28;20688;-72
2023/04/11 06:29:11;;;;;;;15.88;10.50;;;11.00;99.90;;;;;;5009647;28;20038;-73
2023/04/11 06:31:39;;;;;;;18.23;10.98;;;11.00;99.90;;;;;;5006084;28;20042;-71
2023/04/11 06:34:06;;;;;;;16.60;11.98;;;11.00;99.90;;;;;;5010482;28;20046;-73
2023/04/11 06:36:33;;;;;;;14.30;10.30;;;11.10;99.90;;;;;;5002764;28;20041;-71
2023/04/11 06:39:00;;;;;;;18.60;11.60;;;11.00;99.90;;;;;;5004539;28;20095;-72
2023/04/11 06:41:28;;;;;;;19.92;11.45;;;10.90;99.90;;;;;;5010865;28;20060;-72
2023/04/11 06:43:55;;;;;;;14.75;9.05;;;10.90;99.90;;;;;;5009159;28;20048;-71
2023/04/11 06:46:23;;;;;;;14.35;10.10;;;10.80;99.90;;;;;;5010664;28;20072;-72
2023/04/11 06:48:50;;;;;;;24.27;11.13;;;10.80;99.90;;;;;;5008647;28;20045;-72
2023/04/11 06:51:17;;;;;;;22.92;11.77;;;10.70;99.90;;;;;;5009939;28;20143;-71
2023/04/11 06:53:44;;;;;;;23.52;12.25;;;10.80;99.90;;;;;;5007012;28;20051;-73
2023/04/11 06:56:11;;;;;;;20.92;11.48;;;10.70;99.90;;;;;;5009020;28;20049;-72
2023/04/11 06:58:39;;;;;;;20.88;10.63;;;10.60;99.90;;;;;;5003494;28;20128;-73
2023/04/11 07:01:06;;;;;;;17.42;11.73;;;10.60;99.90;;;;;;5026696;28;20064;-72
2023/04/11 07:03:33;;;;;;;19.52;12.05;;;10.80;99.90;;;;;;5020780;28;20465;-72
2023/04/11 07:06:01;;;;;;;24.35;11.30;;;10.90;99.90;;;;;;5027462;28;20095;-72
2023/04/11 07:08:28;;;;;;;23.88;12.45;;;10.90;99.90;;;;;;5024663;28;20504;-74
2023/04/11 07:10:55;;;;;;;18.52;10.63;;;11.00;99.90;;;;;;5034026;28;20041;-72
2023/04/11 07:13:22;;;;;;;16.98;11.07;;;10.90;99.90;;;;;;5028899;28;20052;-72
2023/04/11 07:15:50;;;;;;;20.20;11.68;;;10.80;99.90;;;;;;5029572;28;20420;-73
2023/04/11 07:18:17;;;;;;;21.88;12.43;;;10.90;99.90;;;;;;5022927;28;20087;-75
2023/04/11 07:20:45;;;;;;;19.70;11.90;;;11.10;99.90;;;;;;5026108;28;20041;-73
2023/04/11 07:23:14;;;;;;;;;;;10.90;99.90;;;;;;5020457;28;20033;-71
2023/04/11 07:25:43;;;;;;;18.88;11.45;;;11.00;99.90;;;;;;5033307;28;19943;-71
2023/04/11 07:28:11;;;;;;;17.10;10.82;;;11.10;99.90;;;;;;5032726;28;20040;-73
2023/04/11 07:30:38;;;;;;;18.90;10.85;;;10.90;99.90;;;;;;5021654;28;20125;-73
2023/04/11 07:33:05;;;;;;;20.08;12.20;;;11.10;99.90;;;;;;5032728;28;20040;-74
2023/04/11 07:35:33;;;;;;;21.10;11.23;;;11.30;99.90;;;;;;5020314;28;20049;-72
2023/04/11 07:38:00;;;;;;;18.80;11.35;;;11.10;99.90;;;;;;5017367;28;20114;-73
2023/04/11 07:40:29;;;;;;;20.40;12.27;;;11.10;99.90;;;;;;5029906;28;20041;-74
2023/04/11 07:42:56;;;;;;;21.00;11.82;;;11.20;99.90;;;;;;5022077;28;20052;-73
2023/04/11 07:45:24;;;;;;;16.15;11.25;;;11.20;99.90;;;;;;5031737;28;20457;-73
2023/04/11 07:47:51;;;;;;;19.17;11.98;;;11.40;99.90;;;;;;5021685;28;20033;-73
2023/04/11 07:50:18;;;;;;;24.63;12.32;;;11.40;99.90;;;;;;5018570;28;20414;-74
2023/04/11 07:52:51;;;;;;;17.80;12.20;;;11.30;99.90;;;;;;5024054;28;20049;-73
2023/04/11 07:55:19;;;;;;;18.90;11.73;;;11.50;99.90;;;;;;5004862;28;20134;-74
2023/04/11 07:57:46;;;;;;;19.23;10.60;;;11.80;99.90;;;;;;5019934;28;20065;-73
2023/04/11 08:00:22;;;;;;;18.50;10.98;;;12.10;99.50;;;;;;5023142;28;20049;-75
2023/04/11 08:02:51;;;;;;;19.63;11.02;;;12.40;98.90;;;;;;5036087;28;20041;-75
2023/04/11 08:05:18;;;;;;;18.38;10.95;;;12.40;98.60;;;;;;5020639;28;20042;-74
2023/04/11 08:07:47;;;;;;;14.85;10.02;;;12.60;98.10;;;;;;5011707;28;20041;-74
2023/04/11 08:10:18;;;;;;;15.95;10.65;;;12.80;96.70;;;;;;5008323;28;20505;-75
2023/04/11 08:12:51;;;;;;;19.85;10.52;;;12.70;96.90;;;;;;5008328;28;20045;-74
2023/04/11 08:15:25;;;;;;;22.75;10.88;;;12.90;97.90;;;;;;5004791;28;20060;-73
2023/04/11 08:17:55;;;;;;;15.23;10.25;;;12.80;96.40;;;;;;5032037;28;20037;-74
2023/04/11 08:20:29;;;;;;;16.35;10.38;;;12.50;96.80;;;;;;4996477;23;20404;-73
2023/04/11 08:22:56;;;;;;;15.68;10.85;;;12.40;96.70;;;;;;4996573;28;20042;-71
2023/04/11 08:25:32;;;;;;;17.00;11.07;;;12.40;97.40;;;;;;5023310;28;20029;-74
2023/04/11 08:28:01;;;;;;;16.50;9.93;;;12.50;97.50;;;;;;4989833;28;20389;-72
2023/04/11 08:30:31;;;;;;;19.85;10.20;;;12.60;96.90;;;;;;4995650;28;20042;-73
2023/04/11 08:32:58;;;;;;;19.27;9.93;;;12.50;96.90;;;;;;4996172;28;20128;-73
2023/04/11 08:35:26;;;;;;;15.45;9.73;;;12.70;96.50;;;;;;5029937;28;20037;-74
2023/04/11 08:37:53;;;;;;;12.65;8.57;;;12.80;96.30;;;;;;5030077;28;20044;-74
2023/04/11 08:40:21;;;;;;;13.63;10.35;;;12.60;95.10;;;;;;5031982;28;20041;-73
2023/04/11 08:42:48;;;;;;;15.85;9.05;;;12.80;95.20;;;;;;5027542;28;20054;-73
2023/04/11 08:45:15;;;;;;;14.45;9.20;;;12.50;95.00;;;;;;5021023;28;20050;-72
2023/04/11 08:47:43;;;;;;;13.93;10.07;;;12.40;95.80;;;;;;4997008;28;20076;-73
2023/04/11 08:50:11;;;;;;;13.90;9.45;;;12.50;96.10;;;;;;5025172;28;20049;-73
2023/04/11 08:52:40;;;;;;;12.70;9.20;;;12.40;96.50;;;;;;4987619;28;20072;-71
2023/04/11 08:55:13;;;;;;;15.82;9.60;;;12.30;96.90;;;;;;5010580;28;20366;-71
2023/04/11 08:57:41;;;;;;;16.25;9.00;;;12.70;96.70;;;;;;4987947;28;20052;-72
2023/04/11 09:00:17;;;;;;;13.00;9.70;;;13.00;95.60;;;;;;5003343;28;20159;-73
2023/04/11 09:03:04;;;;;;;12.57;8.20;;;12.90;95.90;;;;;;4999505;28;20403;-72
2023/04/11 09:05:32;;;;;;;14.07;9.32;;;12.70;95.40;;;;;;5001365;28;20128;-73
2023/04/11 09:08:02;;;;;;;12.13;8.50;;;12.80;96.20;;;;;;4985270;28;20042;-75
2023/04/11 09:10:29;;;;;;;13.48;8.90;;;13.10;95.00;;;;;;5009980;28;20049;-75
2023/04/11 09:12:57;;;;;;;12.23;9.10;;;13.40;94.70;;;;;;4995030;28;20076;-74
2023/04/11 09:15:27;;;;;;;10.68;7.82;;;13.50;94.00;;;;;;4991763;28;20394;-75
2023/04/11 09:17:56;;;;;;;14.13;8.80;;;13.60;92.90;;;;;;5002428;28;20097;-73
2023/04/11 09:20:29;;;;;;;13.85;8.05;;;13.70;91.30;;;;;;4986563;28;20096;-72
2023/04/11 09:22:59;;;;;;;9.93;7.85;;;13.90;90.60;;;;;;5004686;28;20072;-72
2023/04/11 09:25:27;;;;;;;13.93;7.78;;;14.00;90.20;;;;;;5015758;28;20401;-73
2023/04/11 09:28:08;;;;;;;12.70;7.93;;;14.00;88.90;;;;;;5012759;28;20485;-72
2023/04/11 09:30:36;;;;;;;11.13;7.03;;;13.50;90.30;;;;;;5025227;28;20049;-71
2023/04/11 09:33:24;;;;;;;13.07;7.50;;;13.40;90.80;;;;;;5014128;28;20133;-73
2023/04/11 09:35:53;;;;;;;12.95;7.28;;;13.80;90.20;;;;;;5021152;28;20048;-73
2023/04/11 09:38:35;;;;;;;12.45;7.63;;;13.70;90.10;;;;;;4996959;28;20387;-72
2023/04/11 09:41:03;;;;;;;14.18;8.13;;;13.50;90.80;;;;;;5010543;28;20050;-71
2023/04/11 09:43:51;;;;;;;9.65;7.65;;;13.80;90.40;;;;;;5001675;28;20029;-75
2023/04/11 09:46:20;;;;;;;9.35;6.80;;;13.40;90.10;;;;;;5012268;28;20375;-75
2023/04/11 09:48:49;;;;;;;11.55;7.50;;;13.30;90.30;;;;;;5001676;28;20068;-72
2023/04/11 09:51:17;;;;;;;8.90;7.15;;;13.70;90.40;;;;;;4993488;28;20396;-72
2023/04/11 09:54:02;;;;;;;9.25;7.25;;;13.90;90.60;;;;;;5000215;28;20192;-73
2023/04/11 09:56:33;;;;;;;10.23;7.13;;;14.10;87.90;;;;;;4997344;28;20477;-72
2023/04/11 09:59:02;;;;;;;11.07;7.50;;;14.20;87.80;;;;;;5027513;28;20393;-71
2023/04/11 10:01:32;;;;;;;;;;;14.30;85.80;;;;;;4986147;28;20501;-75
2023/04/11 10:04:03;;;;;;;9.60;6.60;;;14.40;85.90;;;;;;4994099;28;19925;-75
2023/04/11 10:06:47;;;;;;;10.50;6.88;;;14.20;85.30;;;;;;4979165;28;20120;-74
2023/04/11 10:09:19;;;;;;;8.63;6.85;;;14.60;85.70;;;;;;4991941;28;20041;-74
2023/04/11 10:11:46;;;;;;;10.18;6.68;;;14.50;81.50;;;;;;4988258;28;20056;-73
2023/04/11 10:14:36;;;;;;;11.98;7.57;;;14.60;79.80;;;;;;4992042;28;20049;-74
2023/04/11 10:17:15;;;;;;;13.02;7.28;;;14.80;80.20;;;;;;4996774;28;20050;-72
2023/04/11 10:19:50;;;;;;;10.25;6.60;;;14.80;80.90;;;;;;4992139;28;20128;-71
2023/04/11 10:22:39;;;;;;;9.00;6.65;;;14.90;78.60;;;;;;4993049;28;20096;-76
2023/04/11 10:25:20;;;;;;;7.95;6.40;;;14.80;76.60;;;;;;4996348;28;20046;-72
2023/04/11 10:28:09;;;;;;;13.35;5.53;;;14.60;76.20;;;;;;4987862;28;20041;-72
2023/04/11 10:30:40;;;;;;;9.38;6.15;;;14.70;75.30;;;;;;4984761;28;20058;-74
2023/04/11 10:33:14;;;;;;;9.48;6.32;;;14.60;77.30;;;;;;4998357;28;20052;-78
2023/04/11 10:36:08;;;;;;;10.23;6.78;;;14.70;78.30;;;;;;4996317;28;20072;-77
2023/04/11 10:38:39;;;;;;;9.70;6.70;;;14.20;80.80;;;;;;4988010;23;20391;-74
2023/04/11 10:41:14;;;;;;;10.02;6.88;;;13.90;80.40;;;;;;4962066;28;20038;-74
2023/04/11 10:43:45;;;;;;;9.00;6.15;;;14.50;81.40;;;;;;4963507;28;20064;-75
2023/04/11 10:46:21;;;;;;;;;;;14.70;79.40;;;;;;4968077;28;20382;-73
2023/04/11 10:49:00;;;;;;;9.45;6.82;;;15.00;77.80;;;;;;4996665;28;19925;-73
2023/04/11 10:51:30;;;;;;;10.85;6.32;;;15.20;77.20;;;;;;4981158;28;20068;-76
2023/04/11 10:53:59;;;;;;;7.97;5.97;;;15.30;76.10;;;;;;4963293;28;20046;-77
2023/04/11 10:56:41;;;;;;;11.10;7.85;;;15.00;75.90;;;;;;4994332;28;20069;-71
2023/04/11 10:59:31;;;;;;;7.25;5.78;;;15.00;76.00;;;;;;4996309;28;20057;-72
2023/04/11 11:02:01;;;;;;;11.57;6.53;;;15.00;76.90;;;;;;4965843;28;20069;-71
2023/04/11 11:04:39;;;;;;;15.65;8.52;;;14.30;77.20;;;;;;4988942;28;20493;-74
2023/04/11 11:07:12;;;;;;;11.30;7.18;;;14.40;78.40;;;;;;4986240;28;20074;-80
2023/04/11 11:09:40;;;;;;;15.07;7.93;;;14.50;77.70;;;;;;4992897;28;20073;-71
2023/04/11 11:12:10;;;;;;;10.63;6.90;;;14.60;78.80;;;;;;4971683;28;20536;-74
2023/04/11 11:14:42;;;;;;;10.35;7.07;;;14.60;78.90;;;;;;4980792;28;20034;-74
2023/04/11 11:17:16;;;;;;;11.50;6.95;;;14.70;77.80;;;;;;4985763;28;20034;-72
2023/04/11 11:19:47;;;;;;;10.60;7.13;;;14.80;78.70;;;;;;4976886;28;20034;-75
2023/04/11 11:22:25;;;;;;;13.05;7.18;;;14.80;78.70;;;;;;4987002;28;20111;-74
2023/04/11 11:25:07;;;;;;;10.52;6.93;;;14.40;82.90;;;;;;4994677;28;20115;-75
2023/04/11 11:27:34;;;;;;;16.17;7.95;;;14.00;85.60;;;;;;4964868;28;20050;-75
2023/04/11 11:30:11;;;;;;;11.10;7.30;;;13.90;86.20;;;;;;4966984;28;20501;-74
2023/04/11 11:32:50;;;;;;;11.63;7.80;;;13.70;87.80;;;;;;4972643;28;20370;-74
2023/04/11 11:35:21;;;;;;;;;;;13.80;88.60;;;;;;4969663;28;20053;-72
2023/04/11 11:37:53;;;;;;;13.30;7.68;;;13.60;89.00;;;;;;4960390;28;20016;-74
2023/04/11 11:40:38;;;;;;;12.23;8.20;;;13.40;90.00;;;;;;4975240;28;20435;-74
2023/04/11 11:43:11;;;;;;;12.45;7.72;;;13.40;89.60;;;;;;4981996;28;20125;-74
2023/04/11 11:45:39;;;;;;;11.48;8.00;;;13.70;89.10;;;;;;4995725;28;20373;-73
2023/04/11 11:48:07;;;;;;;14.63;9.23;;;13.70;89.50;;;;;;4976247;28;20054;-75
2023/04/11 11:50:34;;;;;;;12.23;8.63;;;14.10;88.70;;;;;;4989960;28;20035;-73
2023/04/11 11:53:16;;;;;;;11.05;7.88;;;14.40;88.70;;;;;;4992745;28;20049;-73
2023/04/11 11:55:43;;;;;;;10.88;7.43;;;13.90;87.60;;;;;;4990019;28;20050;-73
2023/04/11 11:58:13;;;;;;;13.07;7.93;;;14.20;87.00;;;;;;5000015;28;20042;-74
2023/04/11 12:00:40;;;;;;;11.00;7.72;;;14.60;86.70;;;;;;4976005;28;20105;-74
2023/04/11 12:03:11;;;;;;;12.50;8.07;;;15.10;86.30;;;;;;4988400;28;20057;-75
2023/04/11 12:05:40;;;;;;;;;;;15.10;83.30;;;;;;4976363;28;20038;-74
2023/04/11 12:08:09;;;;;;;11.35;8.27;;;15.10;84.70;;;;;;4974695;28;20081;-74
2023/04/11 12:10:42;;;;;;;11.27;7.70;;;15.30;81.70;;;;;;4976294;28;20490;-75
2023/04/11 12:13:12;;;;;;;14.35;8.43;;;15.80;82.00;;;;;;4979607;28;20136;-74
2023/04/11 12:15:42;;;;;;;10.43;7.75;;;16.50;78.90;;;;;;4993648;28;20042;-73
2023/04/11 12:18:09;;;;;;;10.07;7.35;;;16.50;78.70;;;;;;4992605;28;20117;-75
2023/04/11 12:20:36;;;;;;;10.02;7.53;;;16.50;78.40;;;;;;4992621;28;20038;-74
2023/04/11 12:23:03;;;;;;;11.45;8.02;;;16.40;77.50;;;;;;4994325;28;20129;-74
2023/04/11 12:25:35;;;;;;;12.03;7.47;;;16.10;75.10;;;;;;4983602;28;20031;-74
2023/04/11 12:28:09;;;;;;;14.55;8.88;;;15.70;77.00;;;;;;4980845;28;20045;-75
2023/04/11 12:30:36;;;;;;;11.85;8.23;;;15.50;77.60;;;;;;4978510;28;20038;-74
2023/04/11 12:33:04;;;;;;;12.15;7.13;;;14.70;80.60;;;;;;4976248;28;20058;-73
2023/04/11 12:35:35;;;;;;;10.25;7.65;;;14.50;82.20;;;;;;4987494;28;20059;-76
2023/04/11 12:38:08;;;;;;;12.32;8.25;;;14.30;83.10;;;;;;4971645;28;20507;-74
2023/04/11 12:40:39;;;;;;;12.40;7.85;;;14.40;83.00;;;;;;4970017;28;20073;-75
2023/04/11 12:43:06;;;;;;;9.90;7.07;;;16.40;78.70;;;;;;4959504;28;20512;-75
2023/04/11 12:45:33;;;;;;;14.20;7.82;;;16.90;75.70;;;;;;4993377;28;20049;-74
2023/04/11 12:48:04;;;;;;;10.32;6.72;;;19.80;69.00;;;;;;4999786;28;20069;-73
2023/04/11 12:50:31;;;;;;;;;;;20.70;62.90;;;;;;4964994;28;20133;-74